sensor_id;sensor_type;location;lat;lon;timestamp;P1;durP1;ratioP1;P2;durP2;ratioP2
74777;SDS011;63298;53.164;8.610;2023-08-07T00:00:02;2.53;;;1.52;;
74777;SDS011;63298;53.164;8.610;2023-08-07T00:02:28;2.15;;;1.27;;
74777;SDS011;63298;53.164;8.610;2023-08-07T00:04:53;4.00;;;1.70;;
74777;SDS011;63298;53.164;8.610;2023-08-07T00:07:18;2.55;;;1.77;;
74777;SDS011;63298;53.164;8.610;2023-08-07T00:09:44;2.05;;;1.95;;
74777;SDS011;63298;53.164;8.610;2023-08-07T00:12:09;2.92;;;2.08;;
74777;SDS011;63298;53.164;8.610;2023-08-07T00:14:34;2.45;;;1.83;;
74777;SDS011;63298;53.164;8.610;2023-08-07T00:17:00;2.63;;;1.65;;
74777;SDS011;63298;53.164;8.610;2023-08-07T00:19:25;7.47;;;2.05;;
74777;SDS011;63298;53.164;8.610;2023-08-07T00:21:50;4.05;;;2.20;;
74777;SDS011;63298;53.164;8.610;2023-08-07T00:24:16;3.35;;;2.17;;
74777;SDS011;63298;53.164;8.610;2023-08-07T00:26:41;4.55;;;2.38;;
74777;SDS011;63298;53.164;8.610;2023-08-07T00:29:06;4.80;;;2.00;;
74777;SDS011;63298;53.164;8.610;2023-08-07T00:31:32;2.28;;;2.03;;
74777;SDS011;63298;53.164;8.610;2023-08-07T00:33:57;4.43;;;1.92;;
74777;SDS011;63298;53.164;8.610;2023-08-07T00:36:23;6.10;;;2.00;;
74777;SDS011;63298;53.164;8.610;2023-08-07T00:38:49;5.22;;;2.75;;
74777;SDS011;63298;53.164;8.610;2023-08-07T00:41:16;5.68;;;2.22;;
74777;SDS011;63298;53.164;8.610;2023-08-07T00:43:42;6.70;;;2.10;;
74777;SDS011;63298;53.164;8.610;2023-08-07T00:46:07;3.75;;;2.20;;
74777;SDS011;63298;53.164;8.610;2023-08-07T00:48:33;2.40;;;2.20;;
74777;SDS011;63298;53.164;8.610;2023-08-07T00:50:58;3.83;;;2.05;;
74777;SDS011;63298;53.164;8.610;2023-08-07T00:53:24;3.50;;;2.30;;
74777;SDS011;63298;53.164;8.610;2023-08-07T00:55:49;5.72;;;2.05;;
74777;SDS011;63298;53.164;8.610;2023-08-07T00:58:15;8.27;;;2.38;;
74777;SDS011;63298;53.164;8.610;2023-08-07T01:00:40;2.17;;;1.90;;
74777;SDS011;63298;53.164;8.610;2023-08-07T01:03:06;4.63;;;3.20;;
74777;SDS011;63298;53.164;8.610;2023-08-07T01:05:32;4.38;;;2.03;;
74777;SDS011;63298;53.164;8.610;2023-08-07T01:07:57;4.35;;;2.10;;
74777;SDS011;63298;53.164;8.610;2023-08-07T01:10:35;4.90;;;2.00;;
74777;SDS011;63298;53.164;8.610;2023-08-07T01:13:17;3.30;;;2.10;;
74777;SDS011;63298;53.164;8.610;2023-08-07T01:15:48;3.65;;;2.00;;
74777;SDS011;63298;53.164;8.610;2023-08-07T01:18:17;3.05;;;2.00;;
74777;SDS011;63298;53.164;8.610;2023-08-07T01:20:43;2.60;;;1.95;;
74777;SDS011;63298;53.164;8.610;2023-08-07T01:23:08;4.00;;;2.08;;
74777;SDS011;63298;53.164;8.610;2023-08-07T01:25:34;6.53;;;2.45;;
74777;SDS011;63298;53.164;8.610;2023-08-07T01:30:36;6.60;;;2.55;;
74777;SDS011;63298;53.164;8.610;2023-08-07T01:33:16;6.47;;;2.38;;
74777;SDS011;63298;53.164;8.610;2023-08-07T01:35:49;2.17;;;1.92;;
74777;SDS011;63298;53.164;8.610;2023-08-07T01:38:19;5.72;;;1.85;;
74777;SDS011;63298;53.164;8.610;2023-08-07T01:40:48;3.97;;;2.38;;
74777;SDS011;63298;53.164;8.610;2023-08-07T01:43:18;3.03;;;2.40;;
74777;SDS011;63298;53.164;8.610;2023-08-07T01:45:44;8.20;;;2.25;;
74777;SDS011;63298;53.164;8.610;2023-08-07T01:48:09;2.58;;;2.20;;
74777;SDS011;63298;53.164;8.610;2023-08-07T01:50:35;3.75;;;2.35;;
74777;SDS011;63298;53.164;8.610;2023-08-07T01:53:00;2.35;;;2.15;;
74777;SDS011;63298;53.164;8.610;2023-08-07T01:55:26;3.50;;;1.83;;
74777;SDS011;63298;53.164;8.610;2023-08-07T01:57:51;3.00;;;2.10;;
74777;SDS011;63298;53.164;8.610;2023-08-07T02:00:17;3.40;;;2.38;;
74777;SDS011;63298;53.164;8.610;2023-08-07T02:02:42;4.97;;;2.28;;
74777;SDS011;63298;53.164;8.610;2023-08-07T02:05:08;3.25;;;2.13;;
74777;SDS011;63298;53.164;8.610;2023-08-07T02:07:33;5.43;;;2.03;;
74777;SDS011;63298;53.164;8.610;2023-08-07T02:09:58;4.95;;;2.30;;
74777;SDS011;63298;53.164;8.610;2023-08-07T02:12:23;4.03;;;2.20;;
74777;SDS011;63298;53.164;8.610;2023-08-07T02:14:49;8.73;;;2.22;;
74777;SDS011;63298;53.164;8.610;2023-08-07T02:17:14;3.10;;;2.00;;
74777;SDS011;63298;53.164;8.610;2023-08-07T02:19:39;7.45;;;2.30;;
74777;SDS011;63298;53.164;8.610;2023-08-07T02:22:05;3.78;;;2.20;;
74777;SDS011;63298;53.164;8.610;2023-08-07T02:24:30;4.40;;;2.20;;
74777;SDS011;63298;53.164;8.610;2023-08-07T02:26:56;4.63;;;2.33;;
74777;SDS011;63298;53.164;8.610;2023-08-07T02:29:21;5.47;;;2.05;;
74777;SDS011;63298;53.164;8.610;2023-08-07T02:31:46;3.47;;;2.33;;
74777;SDS011;63298;53.164;8.610;2023-08-07T02:34:12;3.30;;;1.80;;
74777;SDS011;63298;53.164;8.610;2023-08-07T02:36:37;2.40;;;2.20;;
74777;SDS011;63298;53.164;8.610;2023-08-07T02:39:03;3.53;;;2.40;;
74777;SDS011;63298;53.164;8.610;2023-08-07T02:41:29;4.82;;;2.30;;
74777;SDS011;63298;53.164;8.610;2023-08-07T02:43:54;2.38;;;2.13;;
74777;SDS011;63298;53.164;8.610;2023-08-07T02:46:20;3.88;;;2.03;;
74777;SDS011;63298;53.164;8.610;2023-08-07T02:48:45;3.03;;;2.00;;
74777;SDS011;63298;53.164;8.610;2023-08-07T02:51:11;5.63;;;2.50;;
74777;SDS011;63298;53.164;8.610;2023-08-07T02:53:37;4.70;;;2.35;;
74777;SDS011;63298;53.164;8.610;2023-08-07T02:56:03;7.85;;;2.55;;
74777;SDS011;63298;53.164;8.610;2023-08-07T02:58:28;2.30;;;2.10;;
74777;SDS011;63298;53.164;8.610;2023-08-07T03:00:54;6.85;;;2.42;;
74777;SDS011;63298;53.164;8.610;2023-08-07T03:03:19;6.95;;;2.53;;
74777;SDS011;63298;53.164;8.610;2023-08-07T03:05:51;5.15;;;2.38;;
74777;SDS011;63298;53.164;8.610;2023-08-07T03:08:17;6.55;;;2.08;;
74777;SDS011;63298;53.164;8.610;2023-08-07T03:10:52;2.60;;;2.20;;
74777;SDS011;63298;53.164;8.610;2023-08-07T03:13:19;11.05;;;2.20;;
74777;SDS011;63298;53.164;8.610;2023-08-07T03:15:45;4.20;;;2.22;;
74777;SDS011;63298;53.164;8.610;2023-08-07T03:18:10;3.25;;;2.40;;
74777;SDS011;63298;53.164;8.610;2023-08-07T03:20:36;4.70;;;2.70;;
74777;SDS011;63298;53.164;8.610;2023-08-07T03:23:02;3.83;;;2.15;;
74777;SDS011;63298;53.164;8.610;2023-08-07T03:25:27;2.22;;;1.95;;
74777;SDS011;63298;53.164;8.610;2023-08-07T03:27:53;8.27;;;2.30;;
74777;SDS011;63298;53.164;8.610;2023-08-07T03:30:18;4.00;;;1.90;;
74777;SDS011;63298;53.164;8.610;2023-08-07T03:32:44;4.72;;;2.40;;
74777;SDS011;63298;53.164;8.610;2023-08-07T03:35:10;6.70;;;1.83;;
74777;SDS011;63298;53.164;8.610;2023-08-07T03:37:36;2.42;;;1.70;;
74777;SDS011;63298;53.164;8.610;2023-08-07T03:40:02;7.30;;;1.92;;
74777;SDS011;63298;53.164;8.610;2023-08-07T03:42:28;2.88;;;1.40;;
74777;SDS011;63298;53.164;8.610;2023-08-07T03:44:53;3.92;;;1.48;;
74777;SDS011;63298;53.164;8.610;2023-08-07T03:47:18;6.22;;;1.67;;
74777;SDS011;63298;53.164;8.610;2023-08-07T03:49:44;2.80;;;1.30;;
74777;SDS011;63298;53.164;8.610;2023-08-07T03:52:09;10.03;;;1.50;;
74777;SDS011;63298;53.164;8.610;2023-08-07T03:54:34;1.00;;;1.00;;
74777;SDS011;63298;53.164;8.610;2023-08-07T03:56:59;1.20;;;1.10;;
74777;SDS011;63298;53.164;8.610;2023-08-07T03:59:25;2.00;;;1.03;;
74777;SDS011;63298;53.164;8.610;2023-08-07T04:01:50;4.97;;;1.67;;
74777;SDS011;63298;53.164;8.610;2023-08-07T04:04:15;1.70;;;0.90;;
74777;SDS011;63298;53.164;8.610;2023-08-07T04:06:40;1.00;;;1.00;;
74777;SDS011;63298;53.164;8.610;2023-08-07T04:09:06;3.03;;;1.15;;
74777;SDS011;63298;53.164;8.610;2023-08-07T04:11:31;1.58;;;1.00;;
74777;SDS011;63298;53.164;8.610;2023-08-07T04:13:56;1.13;;;1.00;;
74777;SDS011;63298;53.164;8.610;2023-08-07T04:16:22;2.53;;;0.98;;
74777;SDS011;63298;53.164;8.610;2023-08-07T04:18:47;1.10;;;1.00;;
74777;SDS011;63298;53.164;8.610;2023-08-07T04:21:12;1.83;;;1.02;;
74777;SDS011;63298;53.164;8.610;2023-08-07T04:23:38;2.85;;;0.95;;
74777;SDS011;63298;53.164;8.610;2023-08-07T04:26:03;5.47;;;1.00;;
74777;SDS011;63298;53.164;8.610;2023-08-07T04:28:28;1.13;;;1.00;;
74777;SDS011;63298;53.164;8.610;2023-08-07T04:30:54;1.40;;;1.00;;
74777;SDS011;63298;53.164;8.610;2023-08-07T04:33:20;0.80;;;0.80;;
74777;SDS011;63298;53.164;8.610;2023-08-07T04:35:45;2.10;;;0.90;;
74777;SDS011;63298;53.164;8.610;2023-08-07T04:38:11;1.00;;;0.90;;
74777;SDS011;63298;53.164;8.610;2023-08-07T04:40:37;1.77;;;1.00;;
74777;SDS011;63298;53.164;8.610;2023-08-07T04:43:05;1.52;;;1.00;;
74777;SDS011;63298;53.164;8.610;2023-08-07T04:45:30;0.88;;;0.70;;
74777;SDS011;63298;53.164;8.610;2023-08-07T04:47:55;1.77;;;1.10;;
74777;SDS011;63298;53.164;8.610;2023-08-07T04:50:21;2.63;;;1.00;;
74777;SDS011;63298;53.164;8.610;2023-08-07T04:52:46;1.70;;;0.77;;
74777;SDS011;63298;53.164;8.610;2023-08-07T04:55:11;0.70;;;0.70;;
74777;SDS011;63298;53.164;8.610;2023-08-07T04:57:37;1.08;;;0.80;;
74777;SDS011;63298;53.164;8.610;2023-08-07T05:00:02;0.73;;;0.73;;
74777;SDS011;63298;53.164;8.610;2023-08-07T05:02:28;0.95;;;0.88;;
74777;SDS011;63298;53.164;8.610;2023-08-07T05:04:53;1.90;;;0.90;;
74777;SDS011;63298;53.164;8.610;2023-08-07T05:07:18;0.68;;;0.68;;
74777;SDS011;63298;53.164;8.610;2023-08-07T05:09:44;1.83;;;0.73;;
74777;SDS011;63298;53.164;8.610;2023-08-07T05:12:09;2.75;;;1.00;;
74777;SDS011;63298;53.164;8.610;2023-08-07T05:14:34;0.82;;;0.80;;
74777;SDS011;63298;53.164;8.610;2023-08-07T05:16:59;4.35;;;0.77;;
74777;SDS011;63298;53.164;8.610;2023-08-07T05:19:25;0.77;;;0.77;;
74777;SDS011;63298;53.164;8.610;2023-08-07T05:21:50;2.67;;;0.80;;
74777;SDS011;63298;53.164;8.610;2023-08-07T05:24:16;2.83;;;0.95;;
74777;SDS011;63298;53.164;8.610;2023-08-07T05:26:45;2.95;;;1.00;;
74777;SDS011;63298;53.164;8.610;2023-08-07T05:29:10;3.72;;;1.05;;
74777;SDS011;63298;53.164;8.610;2023-08-07T05:31:36;3.13;;;0.98;;
74777;SDS011;63298;53.164;8.610;2023-08-07T05:34:01;3.40;;;1.10;;
74777;SDS011;63298;53.164;8.610;2023-08-07T05:36:26;4.38;;;1.13;;
74777;SDS011;63298;53.164;8.610;2023-08-07T05:38:52;2.42;;;0.82;;
74777;SDS011;63298;53.164;8.610;2023-08-07T05:41:17;2.33;;;0.93;;
74777;SDS011;63298;53.164;8.610;2023-08-07T05:43:43;3.25;;;0.90;;
74777;SDS011;63298;53.164;8.610;2023-08-07T05:46:13;4.93;;;1.20;;
74777;SDS011;63298;53.164;8.610;2023-08-07T05:48:38;3.65;;;1.20;;
74777;SDS011;63298;53.164;8.610;2023-08-07T05:51:04;1.50;;;0.77;;
74777;SDS011;63298;53.164;8.610;2023-08-07T05:53:29;3.45;;;1.52;;
74777;SDS011;63298;53.164;8.610;2023-08-07T05:55:58;3.40;;;1.27;;
74777;SDS011;63298;53.164;8.610;2023-08-07T05:58:23;6.03;;;0.93;;
74777;SDS011;63298;53.164;8.610;2023-08-07T06:00:48;7.25;;;1.40;;
74777;SDS011;63298;53.164;8.610;2023-08-07T06:03:15;1.90;;;0.80;;
74777;SDS011;63298;53.164;8.610;2023-08-07T06:05:41;7.03;;;1.17;;
74777;SDS011;63298;53.164;8.610;2023-08-07T06:08:06;4.78;;;1.15;;
74777;SDS011;63298;53.164;8.610;2023-08-07T06:10:32;3.70;;;1.17;;
74777;SDS011;63298;53.164;8.610;2023-08-07T06:12:57;4.07;;;1.15;;
74777;SDS011;63298;53.164;8.610;2023-08-07T06:15:22;6.05;;;1.02;;
74777;SDS011;63298;53.164;8.610;2023-08-07T06:17:48;5.38;;;0.95;;
74777;SDS011;63298;53.164;8.610;2023-08-07T06:20:13;5.97;;;0.98;;
74777;SDS011;63298;53.164;8.610;2023-08-07T06:22:38;2.72;;;1.00;;
74777;SDS011;63298;53.164;8.610;2023-08-07T06:25:04;8.80;;;1.17;;
74777;SDS011;63298;53.164;8.610;2023-08-07T06:27:29;6.82;;;1.35;;
74777;SDS011;63298;53.164;8.610;2023-08-07T06:29:55;9.50;;;1.17;;
74777;SDS011;63298;53.164;8.610;2023-08-07T06:32:20;2.67;;;1.17;;
74777;SDS011;63298;53.164;8.610;2023-08-07T06:34:45;5.25;;;1.42;;
74777;SDS011;63298;53.164;8.610;2023-08-07T06:37:11;3.53;;;1.30;;
74777;SDS011;63298;53.164;8.610;2023-08-07T06:39:36;4.88;;;1.35;;
74777;SDS011;63298;53.164;8.610;2023-08-07T06:42:01;4.70;;;1.08;;
74777;SDS011;63298;53.164;8.610;2023-08-07T06:44:27;10.48;;;1.52;;
74777;SDS011;63298;53.164;8.610;2023-08-07T06:46:52;4.63;;;1.95;;
74777;SDS011;63298;53.164;8.610;2023-08-07T06:49:18;7.70;;;1.60;;
74777;SDS011;63298;53.164;8.610;2023-08-07T06:51:43;5.07;;;1.50;;
74777;SDS011;63298;53.164;8.610;2023-08-07T06:54:08;2.70;;;1.23;;
74777;SDS011;63298;53.164;8.610;2023-08-07T06:56:34;4.28;;;1.30;;
74777;SDS011;63298;53.164;8.610;2023-08-07T06:58:59;2.78;;;1.08;;
74777;SDS011;63298;53.164;8.610;2023-08-07T07:01:24;7.13;;;1.60;;
74777;SDS011;63298;53.164;8.610;2023-08-07T07:03:50;9.60;;;1.60;;
74777;SDS011;63298;53.164;8.610;2023-08-07T07:06:15;8.38;;;1.85;;
74777;SDS011;63298;53.164;8.610;2023-08-07T07:08:40;7.40;;;1.70;;
74777;SDS011;63298;53.164;8.610;2023-08-07T07:11:06;7.20;;;1.58;;
74777;SDS011;63298;53.164;8.610;2023-08-07T07:13:31;10.18;;;1.98;;
74777;SDS011;63298;53.164;8.610;2023-08-07T07:15:56;14.55;;;2.05;;
74777;SDS011;63298;53.164;8.610;2023-08-07T07:18:24;8.55;;;2.42;;
74777;SDS011;63298;53.164;8.610;2023-08-07T07:20:56;13.68;;;2.05;;
74777;SDS011;63298;53.164;8.610;2023-08-07T07:23:22;10.95;;;1.75;;
74777;SDS011;63298;53.164;8.610;2023-08-07T07:25:48;6.63;;;1.55;;
74777;SDS011;63298;53.164;8.610;2023-08-07T07:28:13;10.70;;;1.90;;
74777;SDS011;63298;53.164;8.610;2023-08-07T07:30:39;7.88;;;2.08;;
74777;SDS011;63298;53.164;8.610;2023-08-07T07:33:04;12.77;;;1.90;;
74777;SDS011;63298;53.164;8.610;2023-08-07T07:35:29;12.07;;;1.90;;
74777;SDS011;63298;53.164;8.610;2023-08-07T07:37:55;7.78;;;1.92;;
74777;SDS011;63298;53.164;8.610;2023-08-07T07:40:20;8.60;;;1.42;;
74777;SDS011;63298;53.164;8.610;2023-08-07T07:42:45;7.45;;;1.83;;
74777;SDS011;63298;53.164;8.610;2023-08-07T07:45:11;8.10;;;1.73;;
74777;SDS011;63298;53.164;8.610;2023-08-07T07:47:37;11.73;;;2.00;;
74777;SDS011;63298;53.164;8.610;2023-08-07T07:50:06;10.88;;;2.13;;
74777;SDS011;63298;53.164;8.610;2023-08-07T07:52:33;9.43;;;1.92;;
74777;SDS011;63298;53.164;8.610;2023-08-07T07:54:59;9.73;;;2.13;;
74777;SDS011;63298;53.164;8.610;2023-08-07T07:57:24;13.18;;;2.03;;
74777;SDS011;63298;53.164;8.610;2023-08-07T07:59:50;11.63;;;1.80;;
74777;SDS011;63298;53.164;8.610;2023-08-07T08:02:15;24.58;;;2.22;;
74777;SDS011;63298;53.164;8.610;2023-08-07T08:04:40;9.15;;;2.30;;
74777;SDS011;63298;53.164;8.610;2023-08-07T08:07:06;9.60;;;2.00;;
74777;SDS011;63298;53.164;8.610;2023-08-07T08:09:32;13.00;;;1.95;;
74777;SDS011;63298;53.164;8.610;2023-08-07T08:11:58;7.85;;;1.67;;
74777;SDS011;63298;53.164;8.610;2023-08-07T08:14:23;14.00;;;2.00;;
74777;SDS011;63298;53.164;8.610;2023-08-07T08:16:48;9.52;;;1.65;;
74777;SDS011;63298;53.164;8.610;2023-08-07T08:19:14;8.30;;;2.00;;
74777;SDS011;63298;53.164;8.610;2023-08-07T08:21:39;8.98;;;1.77;;
74777;SDS011;63298;53.164;8.610;2023-08-07T08:24:05;8.38;;;1.73;;
74777;SDS011;63298;53.164;8.610;2023-08-07T08:26:30;5.72;;;1.52;;
74777;SDS011;63298;53.164;8.610;2023-08-07T08:28:55;5.45;;;1.48;;
74777;SDS011;63298;53.164;8.610;2023-08-07T08:31:21;7.32;;;1.55;;
74777;SDS011;63298;53.164;8.610;2023-08-07T08:33:46;13.93;;;1.50;;
74777;SDS011;63298;53.164;8.610;2023-08-07T08:36:11;6.50;;;1.63;;
74777;SDS011;63298;53.164;8.610;2023-08-07T08:38:37;7.38;;;1.70;;
74777;SDS011;63298;53.164;8.610;2023-08-07T08:41:02;6.32;;;1.33;;
74777;SDS011;63298;53.164;8.610;2023-08-07T08:43:27;9.35;;;1.90;;
74777;SDS011;63298;53.164;8.610;2023-08-07T08:45:59;10.38;;;1.73;;
74777;SDS011;63298;53.164;8.610;2023-08-07T08:48:26;11.80;;;1.70;;
74777;SDS011;63298;53.164;8.610;2023-08-07T08:50:53;11.10;;;1.50;;
74777;SDS011;63298;53.164;8.610;2023-08-07T08:53:20;10.75;;;2.10;;
74777;SDS011;63298;53.164;8.610;2023-08-07T08:55:46;8.85;;;1.90;;
74777;SDS011;63298;53.164;8.610;2023-08-07T08:58:12;11.50;;;1.90;;
74777;SDS011;63298;53.164;8.610;2023-08-07T09:00:40;10.88;;;2.20;;
74777;SDS011;63298;53.164;8.610;2023-08-07T09:03:06;9.25;;;1.85;;
74777;SDS011;63298;53.164;8.610;2023-08-07T09:05:32;8.05;;;1.88;;
74777;SDS011;63298;53.164;8.610;2023-08-07T09:07:58;5.03;;;1.65;;
74777;SDS011;63298;53.164;8.610;2023-08-07T09:10:24;8.65;;;2.58;;
74777;SDS011;63298;53.164;8.610;2023-08-07T09:12:55;10.73;;;2.38;;
74777;SDS011;63298;53.164;8.610;2023-08-07T09:15:27;11.98;;;2.17;;
74777;SDS011;63298;53.164;8.610;2023-08-07T09:20:20;8.20;;;2.22;;
74777;SDS011;63298;53.164;8.610;2023-08-07T09:22:45;12.35;;;1.50;;
74777;SDS011;63298;53.164;8.610;2023-08-07T09:25:11;10.60;;;2.28;;
74777;SDS011;63298;53.164;8.610;2023-08-07T09:27:37;8.02;;;1.90;;
74777;SDS011;63298;53.164;8.610;2023-08-07T09:30:04;10.57;;;2.10;;
74777;SDS011;63298;53.164;8.610;2023-08-07T09:32:30;6.72;;;1.80;;
74777;SDS011;63298;53.164;8.610;2023-08-07T09:34:56;12.13;;;2.10;;
74777;SDS011;63298;53.164;8.610;2023-08-07T09:37:23;13.80;;;2.17;;
74777;SDS011;63298;53.164;8.610;2023-08-07T09:39:48;6.13;;;2.30;;
74777;SDS011;63298;53.164;8.610;2023-08-07T09:42:14;11.35;;;2.25;;
74777;SDS011;63298;53.164;8.610;2023-08-07T09:44:42;8.82;;;1.60;;
74777;SDS011;63298;53.164;8.610;2023-08-07T09:47:15;6.35;;;1.70;;
74777;SDS011;63298;53.164;8.610;2023-08-07T09:49:44;6.85;;;1.50;;
74777;SDS011;63298;53.164;8.610;2023-08-07T09:52:11;7.35;;;1.52;;
74777;SDS011;63298;53.164;8.610;2023-08-07T09:54:37;8.07;;;1.55;;
74777;SDS011;63298;53.164;8.610;2023-08-07T09:57:03;6.78;;;1.65;;
74777;SDS011;63298;53.164;8.610;2023-08-07T09:59:29;5.40;;;1.60;;
74777;SDS011;63298;53.164;8.610;2023-08-07T10:01:55;6.72;;;1.88;;
74777;SDS011;63298;53.164;8.610;2023-08-07T10:04:23;6.45;;;1.42;;
74777;SDS011;63298;53.164;8.610;2023-08-07T10:06:50;3.03;;;1.50;;
74777;SDS011;63298;53.164;8.610;2023-08-07T10:09:16;5.82;;;1.33;;
74777;SDS011;63298;53.164;8.610;2023-08-07T10:11:42;5.88;;;1.38;;
74777;SDS011;63298;53.164;8.610;2023-08-07T10:14:12;3.58;;;1.42;;
74777;SDS011;63298;53.164;8.610;2023-08-07T10:16:38;7.72;;;1.63;;
74777;SDS011;63298;53.164;8.610;2023-08-07T10:19:05;7.70;;;1.60;;
74777;SDS011;63298;53.164;8.610;2023-08-07T10:21:31;6.88;;;1.48;;
74777;SDS011;63298;53.164;8.610;2023-08-07T10:24:00;4.03;;;1.73;;
74777;SDS011;63298;53.164;8.610;2023-08-07T10:26:28;12.25;;;1.55;;
74777;SDS011;63298;53.164;8.610;2023-08-07T10:28:54;7.32;;;1.55;;
74777;SDS011;63298;53.164;8.610;2023-08-07T10:31:22;11.43;;;2.05;;
74777;SDS011;63298;53.164;8.610;2023-08-07T10:33:48;9.00;;;1.65;;
74777;SDS011;63298;53.164;8.610;2023-08-07T10:36:15;5.57;;;1.45;;
74777;SDS011;63298;53.164;8.610;2023-08-07T10:38:41;1.80;;;1.10;;
74777;SDS011;63298;53.164;8.610;2023-08-07T10:41:12;3.92;;;1.45;;
74777;SDS011;63298;53.164;8.610;2023-08-07T10:43:40;4.38;;;1.20;;
74777;SDS011;63298;53.164;8.610;2023-08-07T10:46:25;8.02;;;1.50;;
74777;SDS011;63298;53.164;8.610;2023-08-07T10:48:54;5.75;;;1.30;;
74777;SDS011;63298;53.164;8.610;2023-08-07T10:51:20;6.55;;;1.45;;
74777;SDS011;63298;53.164;8.610;2023-08-07T10:53:47;5.00;;;1.25;;
74777;SDS011;63298;53.164;8.610;2023-08-07T10:56:18;7.20;;;1.27;;
74777;SDS011;63298;53.164;8.610;2023-08-07T10:59:07;4.32;;;1.50;;
74777;SDS011;63298;53.164;8.610;2023-08-07T11:01:40;8.63;;;1.98;;
74777;SDS011;63298;53.164;8.610;2023-08-07T11:04:08;6.18;;;1.23;;
74777;SDS011;63298;53.164;8.610;2023-08-07T11:06:35;8.98;;;1.63;;
74777;SDS011;63298;53.164;8.610;2023-08-07T11:09:02;6.93;;;1.40;;
74777;SDS011;63298;53.164;8.610;2023-08-07T11:11:29;8.07;;;1.40;;
74777;SDS011;63298;53.164;8.610;2023-08-07T11:14:00;7.57;;;1.95;;
74777;SDS011;63298;53.164;8.610;2023-08-07T11:16:25;7.47;;;1.60;;
74777;SDS011;63298;53.164;8.610;2023-08-07T11:18:50;10.15;;;2.38;;
74777;SDS011;63298;53.164;8.610;2023-08-07T11:21:17;5.60;;;1.35;;
74777;SDS011;63298;53.164;8.610;2023-08-07T11:23:43;10.43;;;2.25;;
74777;SDS011;63298;53.164;8.610;2023-08-07T11:26:09;6.78;;;2.05;;
74777;SDS011;63298;53.164;8.610;2023-08-07T11:28:35;4.30;;;1.73;;
74777;SDS011;63298;53.164;8.610;2023-08-07T11:31:00;9.77;;;2.00;;
74777;SDS011;63298;53.164;8.610;2023-08-07T11:33:27;7.82;;;1.77;;
74777;SDS011;63298;53.164;8.610;2023-08-07T11:35:53;9.88;;;1.77;;
74777;SDS011;63298;53.164;8.610;2023-08-07T11:38:29;8.63;;;2.05;;
74777;SDS011;63298;53.164;8.610;2023-08-07T11:40:56;7.97;;;1.70;;
74777;SDS011;63298;53.164;8.610;2023-08-07T11:43:22;9.20;;;1.30;;
74777;SDS011;63298;53.164;8.610;2023-08-07T11:45:47;5.75;;;1.70;;
74777;SDS011;63298;53.164;8.610;2023-08-07T11:48:13;3.92;;;2.20;;
74777;SDS011;63298;53.164;8.610;2023-08-07T11:50:38;3.33;;;1.70;;
74777;SDS011;63298;53.164;8.610;2023-08-07T11:53:04;4.88;;;1.48;;
74777;SDS011;63298;53.164;8.610;2023-08-07T11:55:29;6.10;;;1.35;;
74777;SDS011;63298;53.164;8.610;2023-08-07T11:57:54;5.75;;;1.27;;
74777;SDS011;63298;53.164;8.610;2023-08-07T12:00:21;4.60;;;1.25;;
74777;SDS011;63298;53.164;8.610;2023-08-07T12:02:50;7.57;;;1.52;;
74777;SDS011;63298;53.164;8.610;2023-08-07T12:05:15;5.30;;;1.50;;
74777;SDS011;63298;53.164;8.610;2023-08-07T12:07:41;4.30;;;1.58;;
74777;SDS011;63298;53.164;8.610;2023-08-07T12:10:09;9.65;;;1.90;;
74777;SDS011;63298;53.164;8.610;2023-08-07T12:12:36;7.82;;;1.60;;
74777;SDS011;63298;53.164;8.610;2023-08-07T12:15:02;4.68;;;1.30;;
74777;SDS011;63298;53.164;8.610;2023-08-07T12:17:30;4.32;;;1.40;;
74777;SDS011;63298;53.164;8.610;2023-08-07T12:19:57;9.55;;;1.50;;
74777;SDS011;63298;53.164;8.610;2023-08-07T12:22:23;7.25;;;1.63;;
74777;SDS011;63298;53.164;8.610;2023-08-07T12:24:48;5.57;;;1.40;;
74777;SDS011;63298;53.164;8.610;2023-08-07T12:27:14;7.88;;;1.77;;
74777;SDS011;63298;53.164;8.610;2023-08-07T12:29:39;3.63;;;1.35;;
74777;SDS011;63298;53.164;8.610;2023-08-07T12:32:05;2.35;;;1.00;;
74777;SDS011;63298;53.164;8.610;2023-08-07T12:34:30;4.43;;;1.08;;
74777;SDS011;63298;53.164;8.610;2023-08-07T12:36:56;10.32;;;1.27;;
74777;SDS011;63298;53.164;8.610;2023-08-07T12:39:21;6.63;;;1.50;;
74777;SDS011;63298;53.164;8.610;2023-08-07T12:41:46;3.95;;;1.33;;
74777;SDS011;63298;53.164;8.610;2023-08-07T12:44:12;7.28;;;1.17;;
74777;SDS011;63298;53.164;8.610;2023-08-07T12:46:37;6.97;;;1.17;;
74777;SDS011;63298;53.164;8.610;2023-08-07T12:49:02;2.95;;;1.27;;
74777;SDS011;63298;53.164;8.610;2023-08-07T12:51:28;7.47;;;1.33;;
74777;SDS011;63298;53.164;8.610;2023-08-07T12:53:53;3.45;;;1.38;;
74777;SDS011;63298;53.164;8.610;2023-08-07T12:56:19;10.48;;;1.40;;
74777;SDS011;63298;53.164;8.610;2023-08-07T12:58:44;5.90;;;1.30;;
74777;SDS011;63298;53.164;8.610;2023-08-07T13:01:09;5.70;;;1.75;;
74777;SDS011;63298;53.164;8.610;2023-08-07T13:03:35;7.72;;;1.45;;
74777;SDS011;63298;53.164;8.610;2023-08-07T13:06:00;2.72;;;1.30;;
74777;SDS011;63298;53.164;8.610;2023-08-07T13:08:25;7.15;;;1.88;;
74777;SDS011;63298;53.164;8.610;2023-08-07T13:10:51;5.13;;;1.83;;
74777;SDS011;63298;53.164;8.610;2023-08-07T13:13:16;4.43;;;1.77;;
74777;SDS011;63298;53.164;8.610;2023-08-07T13:15:41;6.55;;;2.30;;
74777;SDS011;63298;53.164;8.610;2023-08-07T13:18:07;4.18;;;1.48;;
74777;SDS011;63298;53.164;8.610;2023-08-07T13:20:32;9.90;;;1.88;;
74777;SDS011;63298;53.164;8.610;2023-08-07T13:22:57;6.45;;;1.77;;
74777;SDS011;63298;53.164;8.610;2023-08-07T13:25:23;8.45;;;2.17;;
74777;SDS011;63298;53.164;8.610;2023-08-07T13:27:48;2.97;;;1.55;;
74777;SDS011;63298;53.164;8.610;2023-08-07T13:30:13;7.82;;;1.42;;
74777;SDS011;63298;53.164;8.610;2023-08-07T13:32:39;5.68;;;1.52;;
74777;SDS011;63298;53.164;8.610;2023-08-07T13:35:05;5.57;;;1.55;;
74777;SDS011;63298;53.164;8.610;2023-08-07T13:37:31;4.75;;;1.52;;
74777;SDS011;63298;53.164;8.610;2023-08-07T13:39:56;4.38;;;1.17;;
74777;SDS011;63298;53.164;8.610;2023-08-07T13:42:25;6.25;;;1.40;;
74777;SDS011;63298;53.164;8.610;2023-08-07T13:44:50;2.33;;;1.30;;
74777;SDS011;63298;53.164;8.610;2023-08-07T13:47:16;3.97;;;1.25;;
74777;SDS011;63298;53.164;8.610;2023-08-07T13:49:41;5.60;;;1.10;;
74777;SDS011;63298;53.164;8.610;2023-08-07T13:52:07;6.72;;;1.40;;
74777;SDS011;63298;53.164;8.610;2023-08-07T13:54:32;6.85;;;1.58;;
74777;SDS011;63298;53.164;8.610;2023-08-07T13:56:57;5.65;;;1.52;;
74777;SDS011;63298;53.164;8.610;2023-08-07T13:59:23;7.15;;;1.83;;
74777;SDS011;63298;53.164;8.610;2023-08-07T14:01:48;9.02;;;1.70;;
74777;SDS011;63298;53.164;8.610;2023-08-07T14:04:13;8.20;;;1.60;;
74777;SDS011;63298;53.164;8.610;2023-08-07T14:06:39;6.32;;;2.08;;
74777;SDS011;63298;53.164;8.610;2023-08-07T14:09:04;5.75;;;1.50;;
74777;SDS011;63298;53.164;8.610;2023-08-07T14:11:30;5.07;;;1.60;;
74777;SDS011;63298;53.164;8.610;2023-08-07T14:13:56;8.88;;;1.17;;
74777;SDS011;63298;53.164;8.610;2023-08-07T14:16:22;6.60;;;1.58;;
74777;SDS011;63298;53.164;8.610;2023-08-07T14:18:47;4.60;;;1.10;;
74777;SDS011;63298;53.164;8.610;2023-08-07T14:21:14;10.85;;;1.90;;
74777;SDS011;63298;53.164;8.610;2023-08-07T14:23:40;2.67;;;0.98;;
74777;SDS011;63298;53.164;8.610;2023-08-07T14:26:05;2.17;;;1.27;;
74777;SDS011;63298;53.164;8.610;2023-08-07T14:28:30;4.30;;;1.20;;
74777;SDS011;63298;53.164;8.610;2023-08-07T14:30:59;2.72;;;0.80;;
74777;SDS011;63298;53.164;8.610;2023-08-07T14:33:24;2.67;;;1.00;;
74777;SDS011;63298;53.164;8.610;2023-08-07T14:35:50;3.35;;;1.45;;
74777;SDS011;63298;53.164;8.610;2023-08-07T14:38:15;5.80;;;1.23;;
74777;SDS011;63298;53.164;8.610;2023-08-07T14:40:40;4.65;;;1.20;;
74777;SDS011;63298;53.164;8.610;2023-08-07T14:43:09;4.65;;;0.98;;